Copperhill, Tennessee
Current Conditions -  °F | °C
As of 6:15 PM on Wednesday 26 Nov 2014 (Local Time) from KRZR Reporting Station
Scattered Clouds Scattered Clouds  
Wind Chill:   Ceiling: Unl
Heat Index:   Visibility: 10mi
Dew Point: -3°   Wind: 0mph
Humidity: 49%   Direction: NA
Pressure: 30.04"   Gusts: NA
Location:  34.99°N, 84.37°W
Report Text: KRZR 262315Z AUTO 00000KT 10SM SCT100 07/M03 A3004 RMK
Loading
Personal Weather Stations






























Interactive Weather Map New forecast layout! Learn more

10-Day Weather Forecast

Advertisements
Track Severe Weather on mobile